sensor_id;sensor_type;location;lat;lon;timestamp;P1;durP1;ratioP1;P2;durP2;ratioP2
6342;SDS011;3204;42.698;23.298;2023-08-24T00:01:32;17.73;;;13.95;;
6342;SDS011;3204;42.698;23.298;2023-08-24T00:03:57;21.17;;;14.68;;
6342;SDS011;3204;42.698;23.298;2023-08-24T00:06:23;15.65;;;14.35;;
6342;SDS011;3204;42.698;23.298;2023-08-24T00:08:48;16.35;;;13.93;;
6342;SDS011;3204;42.698;23.298;2023-08-24T00:11:14;16.23;;;14.45;;
6342;SDS011;3204;42.698;23.298;2023-08-24T00:13:43;15.80;;;14.32;;
6342;SDS011;3204;42.698;23.298;2023-08-24T00:16:14;17.40;;;14.10;;
6342;SDS011;3204;42.698;23.298;2023-08-24T00:18:43;15.63;;;14.02;;
6342;SDS011;3204;42.698;23.298;2023-08-24T00:21:09;14.63;;;13.27;;
6342;SDS011;3204;42.698;23.298;2023-08-24T00:23:35;17.00;;;14.35;;
6342;SDS011;3204;42.698;23.298;2023-08-24T00:26:01;17.05;;;14.30;;
6342;SDS011;3204;42.698;23.298;2023-08-24T00:28:27;16.35;;;14.45;;
6342;SDS011;3204;42.698;23.298;2023-08-24T00:30:55;17.30;;;14.95;;
6342;SDS011;3204;42.698;23.298;2023-08-24T00:33:20;16.90;;;15.13;;
6342;SDS011;3204;42.698;23.298;2023-08-24T00:35:46;16.85;;;15.18;;
6342;SDS011;3204;42.698;23.298;2023-08-24T00:38:11;17.02;;;15.35;;
6342;SDS011;3204;42.698;23.298;2023-08-24T00:40:41;17.17;;;15.35;;
6342;SDS011;3204;42.698;23.298;2023-08-24T00:43:07;16.17;;;14.57;;
6342;SDS011;3204;42.698;23.298;2023-08-24T00:45:32;21.73;;;15.80;;
6342;SDS011;3204;42.698;23.298;2023-08-24T00:47:59;16.92;;;15.20;;
6342;SDS011;3204;42.698;23.298;2023-08-24T00:50:24;19.48;;;15.32;;
6342;SDS011;3204;42.698;23.298;2023-08-24T00:52:50;17.30;;;15.10;;
6342;SDS011;3204;42.698;23.298;2023-08-24T00:55:17;16.35;;;14.85;;
6342;SDS011;3204;42.698;23.298;2023-08-24T00:57:42;15.93;;;14.52;;
6342;SDS011;3204;42.698;23.298;2023-08-24T01:00:08;17.27;;;15.25;;
6342;SDS011;3204;42.698;23.298;2023-08-24T01:02:37;16.55;;;14.85;;
6342;SDS011;3204;42.698;23.298;2023-08-24T01:05:03;16.58;;;15.18;;
6342;SDS011;3204;42.698;23.298;2023-08-24T01:07:32;16.15;;;14.70;;
6342;SDS011;3204;42.698;23.298;2023-08-24T01:10:01;17.60;;;14.82;;
6342;SDS011;3204;42.698;23.298;2023-08-24T01:17:47;15.98;;;14.40;;
6342;SDS011;3204;42.698;23.298;2023-08-24T01:20:15;16.10;;;14.60;;
6342;SDS011;3204;42.698;23.298;2023-08-24T01:26:06;17.48;;;15.80;;
6342;SDS011;3204;42.698;23.298;2023-08-24T01:28:12;19.00;;;15.15;;
6342;SDS011;3204;42.698;23.298;2023-08-24T01:30:39;15.77;;;14.25;;
6342;SDS011;3204;42.698;23.298;2023-08-24T01:33:05;15.93;;;14.52;;
6342;SDS011;3204;42.698;23.298;2023-08-24T01:35:36;14.48;;;13.27;;
6342;SDS011;3204;42.698;23.298;2023-08-24T01:38:02;17.75;;;16.05;;
6342;SDS011;3204;42.698;23.298;2023-08-24T01:43:18;23.65;;;14.68;;
6342;SDS011;3204;42.698;23.298;2023-08-24T01:45:46;16.55;;;14.98;;
6342;SDS011;3204;42.698;23.298;2023-08-24T01:48:13;17.05;;;15.45;;
6342;SDS011;3204;42.698;23.298;2023-08-24T01:50:39;16.95;;;15.23;;
6342;SDS011;3204;42.698;23.298;2023-08-24T01:53:06;16.30;;;14.80;;
6342;SDS011;3204;42.698;23.298;2023-08-24T01:55:31;16.08;;;14.68;;
6342;SDS011;3204;42.698;23.298;2023-08-24T01:57:57;17.30;;;14.90;;
6342;SDS011;3204;42.698;23.298;2023-08-24T02:00:23;16.55;;;14.85;;
6342;SDS011;3204;42.698;23.298;2023-08-24T02:02:49;16.15;;;14.52;;
6342;SDS011;3204;42.698;23.298;2023-08-24T02:05:14;16.77;;;15.13;;
6342;SDS011;3204;42.698;23.298;2023-08-24T02:07:40;16.20;;;14.80;;
6342;SDS011;3204;42.698;23.298;2023-08-24T02:10:06;15.93;;;14.35;;
6342;SDS011;3204;42.698;23.298;2023-08-24T02:12:32;17.83;;;14.10;;
6342;SDS011;3204;42.698;23.298;2023-08-24T02:14:57;16.05;;;14.50;;
6342;SDS011;3204;42.698;23.298;2023-08-24T02:17:23;15.57;;;14.15;;
6342;SDS011;3204;42.698;23.298;2023-08-24T02:19:48;16.10;;;14.70;;
6342;SDS011;3204;42.698;23.298;2023-08-24T02:22:14;16.38;;;14.88;;
6342;SDS011;3204;42.698;23.298;2023-08-24T02:24:39;16.23;;;14.73;;
6342;SDS011;3204;42.698;23.298;2023-08-24T02:27:05;15.95;;;14.55;;
6342;SDS011;3204;42.698;23.298;2023-08-24T02:29:31;15.63;;;14.40;;
6342;SDS011;3204;42.698;23.298;2023-08-24T02:31:56;18.48;;;14.43;;
6342;SDS011;3204;42.698;23.298;2023-08-24T02:34:21;16.25;;;14.65;;
6342;SDS011;3204;42.698;23.298;2023-08-24T02:36:47;16.27;;;14.68;;
6342;SDS011;3204;42.698;23.298;2023-08-24T02:39:13;18.25;;;14.68;;
6342;SDS011;3204;42.698;23.298;2023-08-24T02:41:38;16.27;;;14.73;;
6342;SDS011;3204;42.698;23.298;2023-08-24T02:44:04;16.45;;;14.75;;
6342;SDS011;3204;42.698;23.298;2023-08-24T02:46:29;17.35;;;15.75;;
6342;SDS011;3204;42.698;23.298;2023-08-24T02:48:55;16.77;;;15.02;;
6342;SDS011;3204;42.698;23.298;2023-08-24T02:51:21;17.05;;;15.75;;
6342;SDS011;3204;42.698;23.298;2023-08-24T02:53:48;19.23;;;16.95;;
6342;SDS011;3204;42.698;23.298;2023-08-24T02:56:15;22.52;;;16.25;;
6342;SDS011;3204;42.698;23.298;2023-08-24T02:58:41;19.70;;;17.20;;
6342;SDS011;3204;42.698;23.298;2023-08-24T03:01:08;20.40;;;18.25;;
6342;SDS011;3204;42.698;23.298;2023-08-24T03:03:34;21.23;;;17.85;;
6342;SDS011;3204;42.698;23.298;2023-08-24T03:06:04;19.00;;;17.00;;
6342;SDS011;3204;42.698;23.298;2023-08-24T03:08:32;19.10;;;16.45;;
6342;SDS011;3204;42.698;23.298;2023-08-24T03:11:01;17.85;;;16.17;;
6342;SDS011;3204;42.698;23.298;2023-08-24T03:13:27;18.27;;;16.40;;
6342;SDS011;3204;42.698;23.298;2023-08-24T03:15:54;17.05;;;15.35;;
6342;SDS011;3204;42.698;23.298;2023-08-24T03:18:20;16.02;;;14.55;;
6342;SDS011;3204;42.698;23.298;2023-08-24T03:20:46;16.83;;;15.05;;
6342;SDS011;3204;42.698;23.298;2023-08-24T03:23:12;19.02;;;15.35;;
6342;SDS011;3204;42.698;23.298;2023-08-24T03:25:38;18.13;;;15.50;;
6342;SDS011;3204;42.698;23.298;2023-08-24T03:28:06;19.80;;;15.55;;
6342;SDS011;3204;42.698;23.298;2023-08-24T03:30:33;17.52;;;15.90;;
6342;SDS011;3204;42.698;23.298;2023-08-24T03:33:00;17.63;;;16.02;;
6342;SDS011;3204;42.698;23.298;2023-08-24T03:35:27;17.98;;;15.85;;
6342;SDS011;3204;42.698;23.298;2023-08-24T03:37:53;20.85;;;16.33;;
6342;SDS011;3204;42.698;23.298;2023-08-24T03:40:18;17.88;;;16.27;;
6342;SDS011;3204;42.698;23.298;2023-08-24T03:42:44;17.52;;;15.77;;
6342;SDS011;3204;42.698;23.298;2023-08-24T03:45:09;17.90;;;16.30;;
6342;SDS011;3204;42.698;23.298;2023-08-24T03:47:35;17.80;;;16.27;;
6342;SDS011;3204;42.698;23.298;2023-08-24T03:50:00;18.08;;;16.48;;
6342;SDS011;3204;42.698;23.298;2023-08-24T03:52:26;18.00;;;16.38;;
6342;SDS011;3204;42.698;23.298;2023-08-24T03:54:52;18.40;;;16.80;;
6342;SDS011;3204;42.698;23.298;2023-08-24T03:57:17;18.42;;;16.52;;
6342;SDS011;3204;42.698;23.298;2023-08-24T03:59:43;21.25;;;16.27;;
6342;SDS011;3204;42.698;23.298;2023-08-24T04:02:08;19.02;;;17.10;;
6342;SDS011;3204;42.698;23.298;2023-08-24T04:04:36;20.20;;;16.95;;
6342;SDS011;3204;42.698;23.298;2023-08-24T04:07:01;17.77;;;16.17;;
6342;SDS011;3204;42.698;23.298;2023-08-24T04:09:28;18.70;;;16.65;;
6342;SDS011;3204;42.698;23.298;2023-08-24T04:11:55;17.95;;;16.33;;
6342;SDS011;3204;42.698;23.298;2023-08-24T04:14:21;24.80;;;17.45;;
6342;SDS011;3204;42.698;23.298;2023-08-24T04:16:46;19.88;;;17.23;;
6342;SDS011;3204;42.698;23.298;2023-08-24T04:19:12;28.27;;;19.48;;
6342;SDS011;3204;42.698;23.298;2023-08-24T04:21:38;29.23;;;21.77;;
6342;SDS011;3204;42.698;23.298;2023-08-24T04:24:03;30.00;;;21.75;;
6342;SDS011;3204;42.698;23.298;2023-08-24T04:26:29;30.95;;;20.20;;
6342;SDS011;3204;42.698;23.298;2023-08-24T04:28:55;26.88;;;21.63;;
6342;SDS011;3204;42.698;23.298;2023-08-24T04:31:21;34.05;;;22.42;;
6342;SDS011;3204;42.698;23.298;2023-08-24T04:33:47;29.10;;;22.63;;
6342;SDS011;3204;42.698;23.298;2023-08-24T04:36:12;26.65;;;21.42;;
6342;SDS011;3204;42.698;23.298;2023-08-24T04:38:37;31.70;;;20.15;;
6342;SDS011;3204;42.698;23.298;2023-08-24T04:41:03;19.05;;;15.48;;
6342;SDS011;3204;42.698;23.298;2023-08-24T04:43:32;19.95;;;15.57;;
6342;SDS011;3204;42.698;23.298;2023-08-24T04:45:58;17.45;;;15.73;;
6342;SDS011;3204;42.698;23.298;2023-08-24T04:48:24;17.60;;;15.80;;
6342;SDS011;3204;42.698;23.298;2023-08-24T04:50:58;16.67;;;15.20;;
6342;SDS011;3204;42.698;23.298;2023-08-24T04:53:23;20.52;;;16.17;;
6342;SDS011;3204;42.698;23.298;2023-08-24T04:55:49;18.90;;;16.95;;
6342;SDS011;3204;42.698;23.298;2023-08-24T04:58:16;18.60;;;16.67;;
6342;SDS011;3204;42.698;23.298;2023-08-24T05:00:41;19.48;;;17.50;;
6342;SDS011;3204;42.698;23.298;2023-08-24T05:03:07;19.65;;;17.60;;
6342;SDS011;3204;42.698;23.298;2023-08-24T05:05:33;19.65;;;17.67;;
6342;SDS011;3204;42.698;23.298;2023-08-24T05:08:00;20.75;;;18.65;;
6342;SDS011;3204;42.698;23.298;2023-08-24T05:10:29;20.58;;;18.17;;
6342;SDS011;3204;42.698;23.298;2023-08-24T05:12:55;23.48;;;18.88;;
6342;SDS011;3204;42.698;23.298;2023-08-24T05:15:21;25.35;;;18.50;;
6342;SDS011;3204;42.698;23.298;2023-08-24T05:17:48;19.98;;;17.83;;
6342;SDS011;3204;42.698;23.298;2023-08-24T05:20:15;20.38;;;17.83;;
6342;SDS011;3204;42.698;23.298;2023-08-24T05:22:40;21.70;;;18.35;;
6342;SDS011;3204;42.698;23.298;2023-08-24T05:25:06;20.30;;;18.15;;
6342;SDS011;3204;42.698;23.298;2023-08-24T05:27:32;20.95;;;18.33;;
6342;SDS011;3204;42.698;23.298;2023-08-24T05:29:57;20.65;;;18.40;;
6342;SDS011;3204;42.698;23.298;2023-08-24T05:32:23;22.92;;;18.55;;
6342;SDS011;3204;42.698;23.298;2023-08-24T05:34:49;19.08;;;17.38;;
6342;SDS011;3204;42.698;23.298;2023-08-24T05:37:14;23.98;;;18.67;;
6342;SDS011;3204;42.698;23.298;2023-08-24T05:39:40;21.55;;;19.50;;
6342;SDS011;3204;42.698;23.298;2023-08-24T05:42:05;24.77;;;19.13;;
6342;SDS011;3204;42.698;23.298;2023-08-24T05:44:31;22.45;;;19.55;;
6342;SDS011;3204;42.698;23.298;2023-08-24T05:46:56;25.92;;;20.23;;
6342;SDS011;3204;42.698;23.298;2023-08-24T05:49:22;23.50;;;19.98;;
6342;SDS011;3204;42.698;23.298;2023-08-24T05:51:51;27.60;;;20.02;;
6342;SDS011;3204;42.698;23.298;2023-08-24T05:54:17;27.73;;;18.98;;
6342;SDS011;3204;42.698;23.298;2023-08-24T05:56:46;25.73;;;19.42;;
6342;SDS011;3204;42.698;23.298;2023-08-24T05:59:11;26.55;;;19.60;;
6342;SDS011;3204;42.698;23.298;2023-08-24T06:01:38;21.35;;;19.02;;
6342;SDS011;3204;42.698;23.298;2023-08-24T06:04:13;23.27;;;19.88;;
6342;SDS011;3204;42.698;23.298;2023-08-24T06:06:40;26.60;;;19.63;;
6342;SDS011;3204;42.698;23.298;2023-08-24T06:09:06;24.35;;;19.25;;
6342;SDS011;3204;42.698;23.298;2023-08-24T06:11:34;22.63;;;19.30;;
6342;SDS011;3204;42.698;23.298;2023-08-24T06:14:00;25.00;;;19.23;;
6342;SDS011;3204;42.698;23.298;2023-08-24T06:16:27;21.33;;;19.27;;
6342;SDS011;3204;42.698;23.298;2023-08-24T06:18:53;25.27;;;18.42;;
6342;SDS011;3204;42.698;23.298;2023-08-24T06:21:18;23.38;;;18.90;;
6342;SDS011;3204;42.698;23.298;2023-08-24T06:23:44;22.60;;;18.30;;
6342;SDS011;3204;42.698;23.298;2023-08-24T06:26:09;20.77;;;18.65;;
6342;SDS011;3204;42.698;23.298;2023-08-24T06:28:35;19.02;;;17.08;;
6342;SDS011;3204;42.698;23.298;2023-08-24T06:31:01;19.25;;;17.45;;
6342;SDS011;3204;42.698;23.298;2023-08-24T06:33:29;20.90;;;17.45;;
6342;SDS011;3204;42.698;23.298;2023-08-24T06:36:02;20.60;;;17.33;;
6342;SDS011;3204;42.698;23.298;2023-08-24T06:38:30;20.10;;;17.27;;
6342;SDS011;3204;42.698;23.298;2023-08-24T06:40:57;19.95;;;17.70;;
6342;SDS011;3204;42.698;23.298;2023-08-24T06:43:23;23.65;;;16.50;;
6342;SDS011;3204;42.698;23.298;2023-08-24T06:45:48;18.35;;;16.42;;
6342;SDS011;3204;42.698;23.298;2023-08-24T06:48:17;19.55;;;16.45;;
6342;SDS011;3204;42.698;23.298;2023-08-24T06:50:43;19.80;;;15.90;;
6342;SDS011;3204;42.698;23.298;2023-08-24T06:53:09;18.17;;;16.33;;
6342;SDS011;3204;42.698;23.298;2023-08-24T06:55:36;17.88;;;16.00;;
6342;SDS011;3204;42.698;23.298;2023-08-24T06:58:04;17.42;;;15.65;;
6342;SDS011;3204;42.698;23.298;2023-08-24T07:00:30;17.50;;;15.77;;
6342;SDS011;3204;42.698;23.298;2023-08-24T07:02:58;18.30;;;16.45;;
6342;SDS011;3204;42.698;23.298;2023-08-24T07:05:24;16.75;;;15.15;;
6342;SDS011;3204;42.698;23.298;2023-08-24T07:07:50;17.85;;;16.23;;
6342;SDS011;3204;42.698;23.298;2023-08-24T07:10:21;16.98;;;15.40;;
6342;SDS011;3204;42.698;23.298;2023-08-24T07:12:47;16.67;;;15.23;;
6342;SDS011;3204;42.698;23.298;2023-08-24T07:15:12;16.98;;;15.30;;
6342;SDS011;3204;42.698;23.298;2023-08-24T07:17:42;17.85;;;15.82;;
6342;SDS011;3204;42.698;23.298;2023-08-24T07:20:07;18.40;;;15.77;;
6342;SDS011;3204;42.698;23.298;2023-08-24T07:22:33;17.13;;;15.35;;
6342;SDS011;3204;42.698;23.298;2023-08-24T07:25:03;17.70;;;15.90;;
6342;SDS011;3204;42.698;23.298;2023-08-24T07:27:33;17.35;;;15.48;;
6342;SDS011;3204;42.698;23.298;2023-08-24T07:29:59;17.42;;;15.75;;
6342;SDS011;3204;42.698;23.298;2023-08-24T07:32:26;17.42;;;15.75;;
6342;SDS011;3204;42.698;23.298;2023-08-24T07:34:52;16.88;;;15.10;;
6342;SDS011;3204;42.698;23.298;2023-08-24T07:37:17;18.15;;;16.10;;
6342;SDS011;3204;42.698;23.298;2023-08-24T07:39:43;15.77;;;14.18;;
6342;SDS011;3204;42.698;23.298;2023-08-24T07:42:08;18.60;;;16.52;;
6342;SDS011;3204;42.698;23.298;2023-08-24T07:44:34;16.23;;;14.57;;
6342;SDS011;3204;42.698;23.298;2023-08-24T07:46:59;17.77;;;15.20;;
6342;SDS011;3204;42.698;23.298;2023-08-24T07:49:25;23.90;;;15.70;;
6342;SDS011;3204;42.698;23.298;2023-08-24T07:51:50;17.88;;;14.40;;
6342;SDS011;3204;42.698;23.298;2023-08-24T07:54:16;14.63;;;13.27;;
6342;SDS011;3204;42.698;23.298;2023-08-24T07:56:42;16.23;;;13.82;;
6342;SDS011;3204;42.698;23.298;2023-08-24T07:59:07;15.20;;;13.68;;
6342;SDS011;3204;42.698;23.298;2023-08-24T08:01:33;15.57;;;13.77;;
6342;SDS011;3204;42.698;23.298;2023-08-24T08:03:58;14.07;;;12.88;;
6342;SDS011;3204;42.698;23.298;2023-08-24T08:06:25;15.50;;;13.45;;
6342;SDS011;3204;42.698;23.298;2023-08-24T08:08:51;14.55;;;13.30;;
6342;SDS011;3204;42.698;23.298;2023-08-24T08:11:17;19.38;;;14.18;;
6342;SDS011;3204;42.698;23.298;2023-08-24T08:13:46;16.10;;;13.55;;
6342;SDS011;3204;42.698;23.298;2023-08-24T08:16:11;16.58;;;13.30;;
6342;SDS011;3204;42.698;23.298;2023-08-24T08:18:38;14.40;;;12.95;;
6342;SDS011;3204;42.698;23.298;2023-08-24T08:21:10;14.35;;;12.85;;
6342;SDS011;3204;42.698;23.298;2023-08-24T08:23:40;15.02;;;13.80;;
6342;SDS011;3204;42.698;23.298;2023-08-24T08:26:07;16.90;;;12.63;;
6342;SDS011;3204;42.698;23.298;2023-08-24T08:28:34;15.02;;;13.55;;
6342;SDS011;3204;42.698;23.298;2023-08-24T08:31:03;18.98;;;14.25;;
6342;SDS011;3204;42.698;23.298;2023-08-24T08:33:28;22.20;;;13.55;;
6342;SDS011;3204;42.698;23.298;2023-08-24T08:36:00;15.93;;;12.60;;
6342;SDS011;3204;42.698;23.298;2023-08-24T08:38:25;14.80;;;13.57;;
6342;SDS011;3204;42.698;23.298;2023-08-24T08:40:51;15.38;;;13.80;;
6342;SDS011;3204;42.698;23.298;2023-08-24T08:43:23;14.43;;;13.00;;
6342;SDS011;3204;42.698;23.298;2023-08-24T08:45:52;14.88;;;12.68;;
6342;SDS011;3204;42.698;23.298;2023-08-24T08:48:20;15.55;;;13.40;;
6342;SDS011;3204;42.698;23.298;2023-08-24T08:50:49;13.70;;;12.55;;
6342;SDS011;3204;42.698;23.298;2023-08-24T08:53:16;16.33;;;13.25;;
6342;SDS011;3204;42.698;23.298;2023-08-24T08:55:49;13.77;;;12.50;;
6342;SDS011;3204;42.698;23.298;2023-08-24T08:58:17;15.20;;;12.98;;
6342;SDS011;3204;42.698;23.298;2023-08-24T09:00:43;13.48;;;12.27;;
6342;SDS011;3204;42.698;23.298;2023-08-24T09:03:09;13.60;;;12.45;;
6342;SDS011;3204;42.698;23.298;2023-08-24T09:05:36;14.95;;;13.80;;
6342;SDS011;3204;42.698;23.298;2023-08-24T09:08:02;14.25;;;13.00;;
6342;SDS011;3204;42.698;23.298;2023-08-24T09:10:34;14.35;;;13.05;;
6342;SDS011;3204;42.698;23.298;2023-08-24T09:13:00;16.65;;;15.00;;
6342;SDS011;3204;42.698;23.298;2023-08-24T09:15:26;14.68;;;13.57;;
6342;SDS011;3204;42.698;23.298;2023-08-24T09:18:01;15.32;;;13.82;;
6342;SDS011;3204;42.698;23.298;2023-08-24T09:20:27;15.23;;;14.00;;
6342;SDS011;3204;42.698;23.298;2023-08-24T09:22:56;15.10;;;13.85;;
6342;SDS011;3204;42.698;23.298;2023-08-24T09:25:25;17.95;;;13.57;;
6342;SDS011;3204;42.698;23.298;2023-08-24T09:28:01;16.60;;;13.57;;
6342;SDS011;3204;42.698;23.298;2023-08-24T09:30:52;14.27;;;13.25;;
6342;SDS011;3204;42.698;23.298;2023-08-24T09:33:21;15.88;;;14.43;;
6342;SDS011;3204;42.698;23.298;2023-08-24T09:35:54;15.00;;;13.95;;
6342;SDS011;3204;42.698;23.298;2023-08-24T09:38:29;16.83;;;15.23;;
6342;SDS011;3204;42.698;23.298;2023-08-24T09:40:55;16.98;;;15.25;;
6342;SDS011;3204;42.698;23.298;2023-08-24T09:43:26;15.25;;;13.93;;
6342;SDS011;3204;42.698;23.298;2023-08-24T09:45:56;14.75;;;13.65;;
6342;SDS011;3204;42.698;23.298;2023-08-24T09:48:24;15.88;;;14.45;;
6342;SDS011;3204;42.698;23.298;2023-08-24T09:50:50;15.43;;;14.00;;
6342;SDS011;3204;42.698;23.298;2023-08-24T09:53:17;14.50;;;12.98;;
6342;SDS011;3204;42.698;23.298;2023-08-24T09:56:02;13.68;;;12.45;;
6342;SDS011;3204;42.698;23.298;2023-08-24T09:58:28;13.88;;;12.55;;
6342;SDS011;3204;42.698;23.298;2023-08-24T10:00:56;12.85;;;12.00;;
6342;SDS011;3204;42.698;23.298;2023-08-24T10:03:25;12.98;;;12.07;;
6342;SDS011;3204;42.698;23.298;2023-08-24T10:05:52;12.77;;;11.80;;
6342;SDS011;3204;42.698;23.298;2023-08-24T10:08:39;12.88;;;11.80;;
6342;SDS011;3204;42.698;23.298;2023-08-24T10:11:08;13.45;;;12.43;;
6342;SDS011;3204;42.698;23.298;2023-08-24T10:16:46;13.07;;;12.35;;
6342;SDS011;3204;42.698;23.298;2023-08-24T10:19:15;13.50;;;12.30;;
6342;SDS011;3204;42.698;23.298;2023-08-24T10:21:42;13.00;;;11.35;;
6342;SDS011;3204;42.698;23.298;2023-08-24T10:24:08;15.88;;;12.02;;
6342;SDS011;3204;42.698;23.298;2023-08-24T10:26:39;12.77;;;11.45;;
6342;SDS011;3204;42.698;23.298;2023-08-24T10:29:06;11.85;;;11.05;;
6342;SDS011;3204;42.698;23.298;2023-08-24T10:31:31;11.50;;;10.88;;
6342;SDS011;3204;42.698;23.298;2023-08-24T10:33:58;12.50;;;11.27;;
6342;SDS011;3204;42.698;23.298;2023-08-24T10:36:27;12.88;;;10.68;;
6342;SDS011;3204;42.698;23.298;2023-08-24T10:38:55;12.35;;;11.55;;
6342;SDS011;3204;42.698;23.298;2023-08-24T10:41:27;12.18;;;11.27;;
6342;SDS011;3204;42.698;23.298;2023-08-24T10:43:52;11.93;;;11.05;;
6342;SDS011;3204;42.698;23.298;2023-08-24T10:46:34;12.57;;;11.68;;
6342;SDS011;3204;42.698;23.298;2023-08-24T10:49:03;12.32;;;11.23;;
6342;SDS011;3204;42.698;23.298;2023-08-24T10:51:29;11.80;;;10.95;;
6342;SDS011;3204;42.698;23.298;2023-08-24T10:53:57;13.52;;;11.80;;
6342;SDS011;3204;42.698;23.298;2023-08-24T10:56:37;12.40;;;11.48;;
6342;SDS011;3204;42.698;23.298;2023-08-24T10:59:14;14.00;;;11.38;;
6342;SDS011;3204;42.698;23.298;2023-08-24T11:04:17;13.65;;;12.30;;
6342;SDS011;3204;42.698;23.298;2023-08-24T11:09:18;11.05;;;10.05;;
6342;SDS011;3204;42.698;23.298;2023-08-24T11:11:57;10.10;;;9.40;;
6342;SDS011;3204;42.698;23.298;2023-08-24T11:14:26;11.40;;;10.40;;
6342;SDS011;3204;42.698;23.298;2023-08-24T11:16:56;11.00;;;10.15;;
6342;SDS011;3204;42.698;23.298;2023-08-24T11:19:24;11.05;;;10.38;;
6342;SDS011;3204;42.698;23.298;2023-08-24T11:21:50;12.85;;;11.98;;
6342;SDS011;3204;42.698;23.298;2023-08-24T11:24:17;12.82;;;11.73;;
6342;SDS011;3204;42.698;23.298;2023-08-24T11:26:43;13.15;;;12.05;;
6342;SDS011;3204;42.698;23.298;2023-08-24T11:29:15;13.50;;;11.23;;
6342;SDS011;3204;42.698;23.298;2023-08-24T11:31:40;12.00;;;11.20;;
6342;SDS011;3204;42.698;23.298;2023-08-24T11:34:06;12.50;;;11.32;;
6342;SDS011;3204;42.698;23.298;2023-08-24T11:36:42;11.80;;;10.98;;
6342;SDS011;3204;42.698;23.298;2023-08-24T11:39:17;11.48;;;10.55;;
6342;SDS011;3204;42.698;23.298;2023-08-24T11:41:45;10.85;;;10.05;;
6342;SDS011;3204;42.698;23.298;2023-08-24T11:44:46;11.50;;;10.80;;
6342;SDS011;3204;42.698;23.298;2023-08-24T11:47:12;10.90;;;10.35;;
6342;SDS011;3204;42.698;23.298;2023-08-24T11:49:37;11.35;;;10.52;;
6342;SDS011;3204;42.698;23.298;2023-08-24T11:52:03;11.30;;;10.27;;
6342;SDS011;3204;42.698;23.298;2023-08-24T11:54:37;10.70;;;10.05;;
6342;SDS011;3204;42.698;23.298;2023-08-24T11:57:06;12.05;;;11.10;;
6342;SDS011;3204;42.698;23.298;2023-08-24T11:59:33;11.80;;;10.65;;
6342;SDS011;3204;42.698;23.298;2023-08-24T12:02:02;11.05;;;10.02;;
6342;SDS011;3204;42.698;23.298;2023-08-24T12:04:27;11.70;;;10.73;;
6342;SDS011;3204;42.698;23.298;2023-08-24T12:06:53;14.57;;;11.70;;
6342;SDS011;3204;42.698;23.298;2023-08-24T12:09:19;12.73;;;11.65;;
6342;SDS011;3204;42.698;23.298;2023-08-24T12:11:44;12.93;;;11.20;;
6342;SDS011;3204;42.698;23.298;2023-08-24T12:14:16;13.07;;;11.18;;
6342;SDS011;3204;42.698;23.298;2023-08-24T12:16:42;13.75;;;11.43;;
6342;SDS011;3204;42.698;23.298;2023-08-24T12:19:32;13.27;;;12.10;;
6342;SDS011;3204;42.698;23.298;2023-08-24T12:22:01;12.73;;;11.32;;
6342;SDS011;3204;42.698;23.298;2023-08-24T12:24:27;12.57;;;11.35;;
6342;SDS011;3204;42.698;23.298;2023-08-24T12:26:57;15.55;;;11.55;;
6342;SDS011;3204;42.698;23.298;2023-08-24T12:29:28;16.55;;;12.05;;
6342;SDS011;3204;42.698;23.298;2023-08-24T12:31:57;12.75;;;11.63;;
6342;SDS011;3204;42.698;23.298;2023-08-24T12:34:23;12.60;;;11.45;;
6342;SDS011;3204;42.698;23.298;2023-08-24T12:36:48;12.98;;;11.73;;
6342;SDS011;3204;42.698;23.298;2023-08-24T12:39:14;12.20;;;10.95;;
6342;SDS011;3204;42.698;23.298;2023-08-24T12:41:40;12.07;;;11.25;;
6342;SDS011;3204;42.698;23.298;2023-08-24T12:44:06;11.80;;;10.85;;
6342;SDS011;3204;42.698;23.298;2023-08-24T12:46:32;12.63;;;11.52;;
6342;SDS011;3204;42.698;23.298;2023-08-24T12:49:02;14.90;;;12.93;;
6342;SDS011;3204;42.698;23.298;2023-08-24T12:51:29;12.95;;;11.75;;
6342;SDS011;3204;42.698;23.298;2023-08-24T12:53:55;13.50;;;12.15;;
6342;SDS011;3204;42.698;23.298;2023-08-24T12:56:20;16.98;;;13.23;;
6342;SDS011;3204;42.698;23.298;2023-08-24T12:58:46;15.88;;;13.48;;
6342;SDS011;3204;42.698;23.298;2023-08-24T13:01:11;16.15;;;13.15;;
6342;SDS011;3204;42.698;23.298;2023-08-24T13:03:37;14.50;;;13.15;;
6342;SDS011;3204;42.698;23.298;2023-08-24T13:06:04;16.10;;;12.85;;
6342;SDS011;3204;42.698;23.298;2023-08-24T13:08:30;13.70;;;12.48;;
6342;SDS011;3204;42.698;23.298;2023-08-24T13:10:56;15.13;;;12.63;;
6342;SDS011;3204;42.698;23.298;2023-08-24T13:13:21;11.23;;;10.38;;
6342;SDS011;3204;42.698;23.298;2023-08-24T13:15:50;12.30;;;11.35;;
6342;SDS011;3204;42.698;23.298;2023-08-24T13:18:16;11.23;;;10.40;;
6342;SDS011;3204;42.698;23.298;2023-08-24T13:20:45;13.20;;;11.95;;
6342;SDS011;3204;42.698;23.298;2023-08-24T13:23:10;13.75;;;12.52;;
6342;SDS011;3204;42.698;23.298;2023-08-24T13:25:39;13.85;;;11.48;;
6342;SDS011;3204;42.698;23.298;2023-08-24T13:28:05;13.35;;;12.10;;
6342;SDS011;3204;42.698;23.298;2023-08-24T13:30:30;13.23;;;11.88;;
6342;SDS011;3204;42.698;23.298;2023-08-24T13:32:56;13.40;;;12.23;;
6342;SDS011;3204;42.698;23.298;2023-08-24T13:35:21;12.65;;;11.30;;
6342;SDS011;3204;42.698;23.298;2023-08-24T13:37:47;12.63;;;11.63;;
6342;SDS011;3204;42.698;23.298;2023-08-24T13:40:13;14.30;;;11.80;;
6342;SDS011;3204;42.698;23.298;2023-08-24T13:42:41;12.23;;;11.23;;
6342;SDS011;3204;42.698;23.298;2023-08-24T13:45:07;11.85;;;11.05;;
6342;SDS011;3204;42.698;23.298;2023-08-24T13:47:33;12.80;;;11.68;;
6342;SDS011;3204;42.698;23.298;2023-08-24T13:49:58;13.93;;;12.68;;
6342;SDS011;3204;42.698;23.298;2023-08-24T13:52:23;12.63;;;11.50;;
6342;SDS011;3204;42.698;23.298;2023-08-24T13:54:49;13.32;;;11.82;;
6342;SDS011;3204;42.698;23.298;2023-08-24T13:57:15;13.40;;;12.32;;
6342;SDS011;3204;42.698;23.298;2023-08-24T13:59:40;13.25;;;11.98;;
6342;SDS011;3204;42.698;23.298;2023-08-24T14:02:10;13.32;;;11.98;;
6342;SDS011;3204;42.698;23.298;2023-08-24T14:04:37;12.63;;;11.45;;
6342;SDS011;3204;42.698;23.298;2023-08-24T14:07:03;14.10;;;12.85;;
6342;SDS011;3204;42.698;23.298;2023-08-24T14:09:32;13.07;;;11.80;;
6342;SDS011;3204;42.698;23.298;2023-08-24T14:11:58;12.60;;;11.27;;
6342;SDS011;3204;42.698;23.298;2023-08-24T14:14:23;14.52;;;11.82;;
6342;SDS011;3204;42.698;23.298;2023-08-24T14:16:53;13.35;;;12.00;;
6342;SDS011;3204;42.698;23.298;2023-08-24T14:19:20;13.10;;;11.35;;
6342;SDS011;3204;42.698;23.298;2023-08-24T14:21:45;14.35;;;13.00;;
6342;SDS011;3204;42.698;23.298;2023-08-24T14:24:10;13.15;;;12.02;;
6342;SDS011;3204;42.698;23.298;2023-08-24T14:26:38;12.73;;;11.75;;
6342;SDS011;3204;42.698;23.298;2023-08-24T14:29:04;13.93;;;12.60;;
6342;SDS011;3204;42.698;23.298;2023-08-24T14:31:32;13.52;;;12.38;;
6342;SDS011;3204;42.698;23.298;2023-08-24T14:34:04;13.32;;;11.98;;
6342;SDS011;3204;42.698;23.298;2023-08-24T14:36:30;13.23;;;12.02;;
6342;SDS011;3204;42.698;23.298;2023-08-24T14:38:58;13.75;;;12.38;;
6342;SDS011;3204;42.698;23.298;2023-08-24T14:41:28;14.30;;;12.27;;
6342;SDS011;3204;42.698;23.298;2023-08-24T14:43:54;12.23;;;11.25;;
6342;SDS011;3204;42.698;23.298;2023-08-24T14:46:19;12.10;;;11.02;;
6342;SDS011;3204;42.698;23.298;2023-08-24T14:48:45;13.27;;;11.20;;
6342;SDS011;3204;42.698;23.298;2023-08-24T14:51:10;11.70;;;10.63;;
6342;SDS011;3204;42.698;23.298;2023-08-24T14:53:35;13.77;;;10.18;;